createdAt,value
2022-08-07T00:01:44.355Z,60.14
2022-08-07T00:04:05.940Z,60.87
2022-08-07T00:06:34.024Z,60.72
2022-08-07T00:09:17.252Z,61.76
2022-08-07T00:11:56.134Z,61.65
2022-08-07T00:14:30.347Z,61.66
2022-08-07T00:16:58.898Z,61.23
2022-08-07T00:19:59.709Z,60.81
2022-08-07T00:22:24.848Z,61.31
2022-08-07T00:25:04.863Z,61.10
2022-08-07T00:27:51.947Z,61.32
2022-08-07T00:30:26.735Z,61.64
2022-08-07T00:32:59.966Z,61.82
2022-08-07T00:35:29.634Z,62.09
2022-08-07T00:37:58.734Z,67.02
2022-08-07T00:40:39.393Z,75.56
2022-08-07T00:43:58.926Z,76.22
2022-08-07T00:46:00.359Z,78.79
2022-08-07T00:48:32.190Z,80.99
2022-08-07T00:51:00.855Z,80.68
2022-08-07T00:53:39.338Z,82.09
2022-08-07T00:56:15.836Z,81.86
2022-08-07T00:58:43.948Z,80.76
2022-08-07T01:01:16.009Z,78.97
2022-08-07T01:03:56.150Z,80.41
2022-08-07T01:06:26.277Z,79.57
2022-08-07T01:08:56.191Z,80.49
2022-08-07T01:12:27.805Z,79.50
2022-08-07T01:14:15.468Z,79.64
2022-08-07T01:16:46.801Z,83.23
2022-08-07T01:19:19.139Z,86.13
2022-08-07T01:21:53.504Z,84.70
2022-08-07T01:24:27.729Z,84.43
2022-08-07T01:26:59.190Z,83.95
2022-08-07T01:29:33.945Z,84.42
2022-08-07T01:32:05.397Z,83.59
2022-08-07T01:34:33.907Z,83.49
2022-08-07T01:37:09.699Z,81.48
2022-08-07T01:39:40.876Z,81.89
2022-08-07T01:42:38.143Z,83.68
2022-08-07T01:45:09.749Z,83.02
2022-08-07T01:48:19.744Z,83.07
2022-08-07T01:50:32.322Z,83.45
2022-08-07T01:53:01.074Z,85.68
2022-08-07T01:55:34.610Z,85.74
2022-08-07T01:58:27.429Z,85.33
2022-08-07T02:01:09.452Z,84.26
2022-08-07T02:03:48.955Z,85.83
2022-08-07T02:06:32.138Z,87.30
2022-08-07T02:09:04.865Z,85.89
2022-08-07T02:12:02.690Z,85.01
2022-08-07T02:14:36.117Z,84.97
2022-08-07T02:17:13.233Z,84.20
2022-08-07T02:20:05.034Z,82.92
2022-08-07T02:22:38.353Z,82.86
2022-08-07T02:25:17.496Z,84.58
2022-08-07T02:27:55.746Z,85.22
2022-08-07T02:30:24.394Z,83.05
2022-08-07T02:33:04.026Z,80.55
2022-08-07T02:36:29.408Z,81.07
2022-08-07T02:38:32.314Z,82.50
2022-08-07T02:41:04.048Z,84.91
2022-08-07T02:43:35.368Z,87.46
2022-08-07T02:46:07.453Z,84.27
2022-08-07T02:48:36.678Z,84.92
2022-08-07T02:51:41.990Z,84.36
2022-08-07T02:54:09.308Z,83.45
2022-08-07T02:56:39.521Z,82.95
2022-08-07T02:59:10.221Z,82.02
2022-08-07T03:01:40.085Z,84.54
2022-08-07T03:04:13.994Z,83.39
2022-08-07T03:06:44.850Z,86.64
2022-08-07T03:09:14.765Z,87.68
2022-08-07T03:12:05.826Z,90.32
2022-08-07T03:14:37.202Z,89.78
2022-08-07T03:17:05.043Z,89.72
2022-08-07T03:19:36.913Z,85.88
2022-08-07T03:22:07.620Z,87.32
2022-08-07T03:24:47.046Z,85.91
2022-08-07T03:27:15.075Z,88.59
2022-08-07T03:30:01.478Z,91.16
2022-08-07T03:32:37.540Z,90.00
2022-08-07T03:35:17.413Z,88.66
2022-08-07T03:37:55.003Z,90.50
2022-08-07T03:40:35.966Z,80.68
2022-08-07T03:43:13.890Z,76.70
2022-08-07T03:45:47.622Z,74.75
2022-08-07T03:48:17.651Z,74.05
2022-08-07T03:50:56.234Z,75.22
2022-08-07T03:54:02.054Z,75.47
2022-08-07T03:56:32.696Z,76.34
2022-08-07T03:59:08.301Z,72.88
2022-08-07T04:01:46.397Z,76.78
2022-08-07T04:04:17.844Z,80.62
2022-08-07T04:06:51.672Z,80.60
2022-08-07T04:09:23.046Z,79.85
2022-08-07T04:12:26.521Z,82.55
2022-08-07T04:14:43.888Z,81.16
2022-08-07T04:17:21.301Z,81.40
2022-08-07T04:19:54.199Z,80.83
2022-08-07T04:22:27.661Z,82.16
2022-08-07T04:25:01.494Z,82.24
2022-08-07T04:27:35.452Z,81.62
2022-08-07T04:30:21.395Z,83.68
2022-08-07T04:33:01.353Z,82.75
2022-08-07T04:35:38.572Z,82.36
2022-08-07T04:38:11.539Z,82.48
2022-08-07T04:40:52.575Z,81.87
2022-08-07T04:44:11.783Z,80.99
2022-08-07T04:46:29.486Z,80.98
2022-08-07T04:49:17.832Z,80.80
2022-08-07T04:52:25.213Z,81.18
2022-08-07T04:58:15.791Z,79.99
2022-08-07T04:58:33.815Z,79.26
2022-08-07T05:01:18.912Z,78.74
2022-08-07T05:04:08.015Z,76.82
2022-08-07T05:06:51.156Z,77.27
2022-08-07T05:09:45.336Z,79.74
2022-08-07T05:12:26.534Z,86.55
2022-08-07T05:15:21.745Z,90.69
2022-08-07T05:18:06.155Z,92.39
2022-08-07T05:20:51.280Z,92.31
2022-08-07T05:23:30.177Z,95.69
2022-08-07T05:26:11.611Z,93.40
2022-08-07T05:28:49.953Z,96.04
2022-08-07T05:31:21.114Z,95.42
2022-08-07T05:34:04.811Z,96.63
2022-08-07T05:36:39.236Z,95.46
2022-08-07T05:40:06.066Z,92.94
2022-08-07T05:42:07.541Z,94.78
2022-08-07T05:44:46.437Z,98.10
2022-08-07T05:47:20.105Z,98.87
2022-08-07T05:49:51.480Z,95.90
2022-08-07T05:52:32.348Z,94.98
2022-08-07T05:55:10.870Z,95.22
2022-08-07T05:57:43.035Z,95.76
2022-08-07T06:00:16.580Z,96.24
2022-08-07T06:02:53.288Z,96.19
2022-08-07T06:05:25.894Z,97.95
2022-08-07T06:08:13.717Z,95.88
2022-08-07T06:10:51.137Z,97.43
2022-08-07T06:13:31.482Z,96.62
2022-08-07T06:16:08.771Z,94.64
2022-08-07T06:18:40.294Z,92.50
2022-08-07T06:22:11.798Z,92.11
2022-08-07T06:24:46.244Z,93.29
2022-08-07T06:26:48.176Z,96.06
2022-08-07T06:29:17.040Z,96.72
2022-08-07T06:31:50.313Z,95.70
2022-08-07T06:34:23.964Z,96.41
2022-08-07T06:37:02.646Z,96.28
2022-08-07T06:40:17.673Z,96.43
2022-08-07T06:42:33.180Z,97.05
2022-08-07T06:45:17.928Z,96.80
2022-08-07T06:47:58.422Z,98.49
2022-08-07T06:50:33.304Z,98.51
2022-08-07T06:53:04.577Z,98.07
2022-08-07T06:55:53.777Z,98.07
2022-08-07T06:58:27.485Z,95.11
2022-08-07T07:01:03.060Z,91.14
2022-08-07T07:03:49.048Z,90.83
2022-08-07T07:06:26.125Z,89.76
2022-08-07T07:08:55.107Z,90.47
2022-08-07T07:12:09.167Z,89.81
2022-08-07T07:14:13.993Z,90.62
2022-08-07T07:16:49.758Z,90.65
2022-08-07T07:19:55.653Z,96.19
2022-08-07T07:22:35.635Z,94.03
2022-08-07T07:25:02.810Z,93.68
2022-08-07T07:28:42.549Z,98.48
2022-08-07T07:31:12.773Z,94.20
2022-08-07T07:33:49.062Z,95.10
2022-08-07T07:36:25.297Z,92.03
2022-08-07T07:39:01.248Z,92.37
2022-08-07T07:41:30.951Z,92.96
2022-08-07T07:44:25.842Z,91.19
2022-08-07T07:47:02.206Z,89.24
2022-08-07T07:50:32.676Z,88.46
2022-08-07T07:52:32.772Z,85.99
2022-08-07T07:55:01.222Z,88.09
2022-08-07T07:57:50.231Z,87.83
2022-08-07T08:00:29.004Z,85.52
2022-08-07T08:03:05.752Z,88.40
2022-08-07T08:05:50.532Z,87.06
2022-08-07T08:08:34.372Z,89.62
2022-08-07T08:11:08.839Z,87.52
2022-08-07T08:13:53.371Z,86.25
2022-08-07T08:16:37.915Z,85.33
2022-08-07T08:19:17.719Z,86.22
2022-08-07T08:22:14.505Z,84.59
2022-08-07T08:25:18.643Z,87.00
2022-08-07T08:27:57.424Z,84.80
2022-08-07T08:30:31.962Z,81.26
2022-08-07T08:33:02.108Z,84.20
2022-08-07T08:35:39.504Z,86.16
2022-08-07T08:38:15.780Z,87.83
2022-08-07T08:41:05.387Z,88.29
2022-08-07T08:43:41.874Z,84.26
2022-08-07T08:46:17.041Z,83.78
2022-08-07T08:49:05.190Z,85.28
2022-08-07T08:51:49.527Z,83.57
2022-08-07T08:54:26.393Z,85.72
2022-08-07T08:56:54.704Z,83.44
2022-08-07T08:59:42.067Z,80.69
2022-08-07T09:02:36.617Z,82.02
2022-08-07T09:05:18.545Z,83.90
2022-08-07T09:07:57.968Z,86.25
2022-08-07T09:10:29.706Z,85.90
2022-08-07T09:13:03.554Z,85.71
2022-08-07T09:16:22.441Z,85.88
2022-08-07T09:18:47.291Z,83.18
2022-08-07T09:21:34.395Z,85.28
2022-08-07T09:24:34.081Z,81.94
2022-08-07T09:27:25.181Z,79.68
2022-08-07T09:30:07.987Z,77.78
2022-08-07T09:32:45.308Z,73.03
2022-08-07T09:36:01.292Z,73.11
2022-08-07T09:38:23.190Z,70.80
2022-08-07T09:40:50.465Z,69.86
2022-08-07T09:44:03.602Z,71.71
2022-08-07T09:47:52.677Z,70.88
2022-08-07T09:50:02.068Z,71.33
2022-08-07T09:52:34.197Z,72.69
2022-08-07T09:55:17.312Z,72.45
2022-08-07T09:58:15.234Z,68.06
2022-08-07T10:01:03.536Z,69.15
2022-08-07T10:04:05.570Z,68.95
2022-08-07T10:06:49.146Z,68.67
2022-08-07T10:09:42.564Z,67.43
2022-08-07T10:12:26.502Z,66.74
2022-08-07T10:15:18.783Z,65.25
2022-08-07T10:18:01.433Z,67.20
2022-08-07T10:20:50.353Z,65.76
2022-08-07T10:24:06.552Z,66.96
2022-08-07T10:26:42.591Z,65.85
2022-08-07T10:29:11.837Z,65.68
2022-08-07T10:32:02.640Z,66.05
2022-08-07T10:35:00.912Z,67.24
2022-08-07T10:38:00.120Z,68.15
2022-08-07T10:44:33.823Z,65.54
2022-08-07T10:47:53.339Z,65.65
2022-08-07T10:50:26.127Z,63.36
2022-08-07T10:53:12.601Z,60.95
2022-08-07T10:55:58.257Z,61.04
2022-08-07T10:58:46.046Z,60.60
2022-08-07T11:01:23.947Z,60.16
2022-08-07T11:04:05.350Z,59.32
2022-08-07T11:06:54.230Z,59.15
2022-08-07T11:10:08.798Z,59.75
2022-08-07T11:12:32.176Z,59.77
2022-08-07T11:15:02.686Z,59.97
2022-08-07T11:17:45.861Z,59.91
2022-08-07T11:20:24.899Z,60.61
2022-08-07T11:23:26.224Z,59.84
2022-08-07T11:26:13.144Z,58.90
2022-08-07T11:29:02.046Z,61.49
2022-08-07T11:31:45.087Z,60.08
2022-08-07T11:34:31.418Z,59.13
2022-08-07T11:37:02.421Z,58.70
2022-08-07T11:40:00.372Z,58.00
2022-08-07T11:42:47.408Z,57.84
2022-08-07T11:45:23.940Z,57.57
2022-08-07T11:48:40.635Z,55.79
2022-08-07T11:51:41.222Z,57.44
2022-08-07T11:54:10.356Z,57.81
2022-08-07T11:56:56.950Z,55.82
2022-08-07T12:00:12.561Z,56.62
2022-08-07T12:02:20.875Z,57.87
2022-08-07T12:05:41.113Z,57.54
2022-08-07T12:08:25.772Z,56.53
2022-08-07T12:11:08.435Z,57.11
2022-08-07T12:13:52.237Z,54.54
2022-08-07T12:16:30.119Z,54.47
2022-08-07T12:19:22.194Z,56.34
2022-08-07T12:22:37.425Z,53.06
2022-08-07T12:26:22.096Z,53.13
2022-08-07T12:28:11.364Z,51.37
2022-08-07T12:30:41.278Z,52.01
2022-08-07T12:33:23.518Z,52.05
2022-08-07T12:35:59.038Z,52.71
2022-08-07T12:38:42.900Z,51.89
2022-08-07T12:41:11.685Z,49.30
2022-08-07T12:44:02.451Z,48.94
2022-08-07T12:46:40.242Z,50.04
2022-08-07T12:49:48.532Z,49.42
2022-08-07T12:52:18.219Z,49.90
2022-08-07T12:54:54.615Z,49.85
2022-08-07T12:57:25.779Z,48.95
2022-08-07T12:59:59.485Z,49.22
2022-08-07T13:02:49.496Z,48.42
2022-08-07T13:06:04.013Z,49.45
2022-08-07T13:08:23.439Z,49.54
2022-08-07T13:10:55.960Z,49.19
2022-08-07T13:13:48.717Z,49.80
2022-08-07T13:16:17.582Z,48.85
2022-08-07T13:19:00.937Z,48.56
2022-08-07T13:21:57.433Z,47.88
2022-08-07T13:24:34.205Z,48.63
2022-08-07T13:27:12.735Z,48.55
2022-08-07T13:29:52.617Z,46.94
2022-08-07T13:32:46.057Z,46.88
2022-08-07T13:36:00.888Z,46.56
2022-08-07T13:38:24.549Z,47.30
2022-08-07T13:41:02.897Z,47.95
2022-08-07T13:43:34.449Z,47.76
2022-08-07T13:46:11.104Z,47.72
2022-08-07T13:48:59.406Z,48.26
2022-08-07T13:52:05.454Z,48.10
2022-08-07T13:54:16.429Z,47.85
2022-08-07T13:56:55.828Z,48.34
2022-08-07T13:59:27.618Z,48.64
2022-08-07T14:02:10.648Z,48.35
2022-08-07T14:04:50.329Z,48.58
2022-08-07T14:07:27.810Z,48.17
2022-08-07T14:10:02.571Z,47.60
2022-08-07T14:12:54.939Z,48.52
2022-08-07T14:15:32.018Z,48.29
2022-08-07T14:18:24.467Z,48.37
2022-08-07T14:21:08.036Z,47.65
2022-08-07T14:24:00.303Z,48.05
2022-08-07T14:26:32.896Z,48.89
2022-08-07T14:29:08.606Z,48.83
2022-08-07T14:31:56.084Z,49.84
2022-08-07T14:34:29.559Z,49.32
2022-08-07T14:36:59.438Z,48.80
2022-08-07T14:40:17.024Z,49.08
2022-08-07T14:42:23.313Z,48.95
2022-08-07T14:44:59.554Z,48.64
2022-08-07T14:47:31.567Z,48.94
2022-08-07T14:50:05.149Z,49.17
2022-08-07T14:52:34.212Z,49.17
2022-08-07T14:55:03.125Z,49.04
2022-08-07T15:03:18.821Z,50.17
2022-08-07T15:05:54.148Z,49.91
2022-08-07T15:08:33.864Z,49.75
2022-08-07T15:11:09.967Z,51.20
2022-08-07T15:14:01.223Z,50.71
2022-08-07T15:16:40.253Z,51.22
2022-08-07T15:20:30.904Z,53.14
2022-08-07T15:25:18.536Z,49.57
2022-08-07T15:31:04.517Z,50.11
2022-08-07T15:33:33.564Z,49.96
2022-08-07T15:36:05.387Z,49.07
2022-08-07T15:38:51.980Z,48.13
2022-08-07T15:42:43.862Z,46.13
2022-08-07T15:44:17.294Z,46.27
2022-08-07T15:46:51.726Z,46.89
2022-08-07T15:49:25.232Z,48.45
2022-08-07T15:54:26.485Z,50.52
2022-08-07T15:56:59.728Z,50.66
2022-08-07T15:59:39.972Z,50.78
2022-08-07T16:02:23.692Z,51.46
2022-08-07T16:04:55.643Z,51.07
2022-08-07T16:08:30.742Z,48.62
2022-08-07T16:10:16.745Z,49.40
2022-08-07T16:13:17.430Z,47.20
2022-08-07T16:15:57.903Z,47.97
2022-08-07T16:18:43.537Z,48.01
2022-08-07T16:22:01.226Z,48.20
2022-08-07T16:24:34.585Z,47.17
2022-08-07T16:27:18.667Z,46.37
2022-08-07T16:30:30.116Z,47.59
2022-08-07T16:34:02.601Z,47.45
2022-08-07T16:36:19.954Z,47.18
2022-08-07T16:39:01.458Z,47.78
2022-08-07T16:41:48.558Z,48.25
2022-08-07T16:45:14.161Z,47.89
2022-08-07T16:50:36.231Z,46.99
2022-08-07T16:53:20.611Z,46.83
2022-08-07T16:55:51.965Z,47.47
2022-08-07T16:58:33.681Z,46.78
2022-08-07T17:01:16.771Z,47.16
2022-08-07T17:03:59.864Z,46.79
2022-08-07T17:06:45.867Z,46.56
2022-08-07T17:10:07.354Z,46.58
2022-08-07T17:12:33.781Z,45.61
2022-08-07T17:15:16.004Z,46.52
2022-08-07T17:17:47.613Z,45.72
2022-08-07T17:20:30.914Z,45.47
2022-08-07T17:23:17.131Z,45.72
2022-08-07T17:26:23.298Z,45.76
2022-08-07T17:29:04.747Z,46.72
2022-08-07T17:31:35.071Z,47.05
2022-08-07T17:34:34.182Z,47.07
2022-08-07T17:37:09.617Z,48.86
2022-08-07T17:40:05.448Z,48.44
2022-08-07T17:42:35.803Z,47.62
2022-08-07T17:45:43.216Z,47.50
2022-08-07T17:48:12.799Z,48.34
2022-08-07T17:51:01.634Z,48.88
2022-08-07T17:53:59.998Z,49.30
2022-08-07T17:56:31.479Z,49.08
2022-08-07T17:59:03.539Z,49.04
2022-08-07T18:01:37.327Z,49.82
2022-08-07T18:04:08.086Z,49.41
2022-08-07T18:06:47.969Z,48.45
2022-08-07T18:09:48.333Z,48.75
2022-08-07T18:12:33.247Z,48.97
2022-08-07T18:15:01.541Z,49.26
2022-08-07T18:18:47.642Z,49.34
2022-08-07T18:21:11.507Z,50.01
2022-08-07T18:23:43.017Z,50.06
2022-08-07T18:26:14.898Z,50.20
2022-08-07T18:29:06.674Z,50.56
2022-08-07T18:32:12.771Z,50.88
2022-08-07T18:35:00.556Z,50.63
2022-08-07T18:38:58.645Z,50.38
2022-08-07T18:40:39.870Z,50.88
2022-08-07T18:43:37.203Z,51.43
2022-08-07T18:46:25.245Z,50.84
2022-08-07T18:50:31.057Z,50.74
2022-08-07T18:52:35.179Z,50.83
2022-08-07T18:55:40.938Z,53.01
2022-08-07T18:58:15.484Z,54.59
2022-08-07T19:00:53.705Z,56.16
2022-08-07T19:03:42.751Z,57.24
2022-08-07T19:06:17.141Z,58.42
2022-08-07T19:09:54.745Z,58.10
2022-08-07T19:12:17.946Z,58.54
2022-08-07T19:14:51.067Z,59.17
2022-08-07T19:17:58.854Z,60.69
2022-08-07T19:20:28.853Z,61.36
2022-08-07T19:23:01.992Z,62.34
2022-08-07T19:26:23.812Z,62.01
2022-08-07T19:30:57.198Z,62.38
2022-08-07T19:31:41.722Z,62.47
2022-08-07T19:34:14.557Z,63.36
2022-08-07T19:37:09.816Z,62.83
2022-08-07T19:39:57.810Z,62.85
2022-08-07T19:42:40.523Z,63.38
2022-08-07T19:46:09.242Z,63.32
2022-08-07T19:48:03.258Z,62.98
2022-08-07T19:50:44.241Z,63.56
2022-08-07T19:54:32.521Z,62.71
2022-08-07T19:56:06.649Z,62.37
2022-08-07T19:58:50.411Z,62.64
2022-08-07T20:01:21.587Z,62.71
2022-08-07T20:03:53.165Z,63.11
2022-08-07T20:06:28.501Z,63.02
2022-08-07T20:09:02.929Z,62.76
2022-08-07T20:12:21.957Z,62.62
2022-08-07T20:14:31.635Z,63.12
2022-08-07T20:17:00.232Z,63.39
2022-08-07T20:19:48.074Z,64.07
2022-08-07T20:22:29.053Z,64.37
2022-08-07T20:25:12.875Z,64.20
2022-08-07T20:27:54.367Z,64.58
2022-08-07T20:30:31.561Z,64.22
2022-08-07T20:33:00.162Z,64.64
2022-08-07T20:35:51.740Z,64.86
2022-08-07T20:38:22.263Z,64.86
2022-08-07T20:40:53.442Z,64.80
2022-08-07T20:43:25.302Z,65.58
2022-08-07T20:46:26.441Z,65.85
2022-08-07T20:49:53.936Z,65.78
2022-08-07T20:51:36.043Z,65.95
2022-08-07T20:54:11.985Z,65.73
2022-08-07T20:56:46.260Z,66.08
2022-08-07T21:00:05.365Z,65.35
2022-08-07T21:02:23.068Z,65.39
2022-08-07T21:04:54.947Z,65.99
2022-08-07T21:07:25.033Z,65.09
2022-08-07T21:10:00.448Z,65.10
2022-08-07T21:12:30.949Z,64.02
2022-08-07T21:14:59.355Z,65.24
2022-08-07T21:18:01.772Z,64.46
2022-08-07T21:20:29.599Z,64.67
2022-08-07T21:22:59.374Z,64.14
2022-08-07T21:25:44.623Z,64.72
2022-08-07T21:28:48.053Z,64.49
2022-08-07T21:31:24.852Z,64.65
2022-08-07T21:34:34.136Z,65.12
2022-08-07T21:37:09.458Z,65.52
2022-08-07T21:39:46.757Z,65.24
2022-08-07T21:42:49.303Z,65.73
2022-08-07T21:46:04.781Z,67.85
2022-08-07T21:48:27.616Z,68.83
2022-08-07T21:51:19.628Z,69.82
2022-08-07T21:53:54.977Z,70.03
2022-08-07T21:56:40.410Z,70.93
2022-08-07T21:59:26.000Z,72.25
2022-08-07T22:02:10.123Z,72.87
2022-08-07T22:04:51.199Z,72.97
2022-08-07T22:07:23.267Z,73.52
2022-08-07T22:10:05.255Z,73.37
2022-08-07T22:12:45.727Z,73.20
2022-08-07T22:16:43.937Z,73.70
2022-08-07T22:18:09.747Z,73.83
2022-08-07T22:20:40.506Z,73.87
2022-08-07T22:23:13.847Z,73.09
2022-08-07T22:25:57.909Z,72.36
2022-08-07T22:28:31.513Z,71.97
2022-08-07T22:31:06.795Z,71.94
2022-08-07T22:33:56.510Z,71.49
2022-08-07T22:36:46.483Z,70.68
2022-08-07T22:39:35.480Z,70.24
2022-08-07T22:42:25.963Z,70.17
2022-08-07T22:44:59.853Z,70.05
2022-08-07T22:47:52.283Z,69.65
2022-08-07T22:50:38.870Z,69.95
2022-08-07T22:53:19.142Z,69.07
2022-08-07T22:56:08.585Z,68.94
2022-08-07T22:58:37.687Z,69.22
2022-08-07T23:01:17.926Z,69.29
2022-08-07T23:03:58.257Z,69.14
2022-08-07T23:06:27.205Z,70.15
2022-08-07T23:10:04.823Z,70.52
2022-08-07T23:11:50.943Z,69.98
2022-08-07T23:14:29.430Z,69.77
2022-08-07T23:16:58.356Z,69.99
2022-08-07T23:20:03.695Z,69.00
2022-08-07T23:22:43.188Z,66.64
2022-08-07T23:25:32.997Z,66.23
2022-08-07T23:28:21.280Z,66.35
2022-08-07T23:31:42.682Z,65.06
2022-08-07T23:34:37.506Z,65.52
2022-08-07T23:37:25.467Z,66.02
2022-08-07T23:39:56.796Z,66.54
2022-08-07T23:42:30.448Z,67.20
2022-08-07T23:45:32.828Z,67.73
2022-08-07T23:48:30.254Z,68.11
2022-08-07T23:51:02.886Z,65.71
2022-08-07T23:53:54.033Z,65.95
2022-08-07T23:56:35.072Z,64.70
2022-08-07T23:59:10.429Z,64.30
